createdAt,value
2022-10-08T00:00:01.038Z,57.1
2022-10-08T00:05:01.452Z,57.4
2022-10-08T00:10:01.463Z,57.2
2022-10-08T00:15:01.290Z,58.0
2022-10-08T00:20:01.158Z,58.4
2022-10-08T00:25:11.193Z,54.3
2022-10-08T00:30:01.024Z,53.1
2022-10-08T00:35:01.504Z,52.4
2022-10-08T00:40:01.034Z,52.3
2022-10-08T00:45:02.215Z,58.4
2022-10-08T00:50:01.062Z,57.2
2022-10-08T00:55:01.237Z,56.6
2022-10-08T01:00:01.129Z,56.3
2022-10-08T01:05:01.572Z,55.8
2022-10-08T01:10:01.359Z,49.7
2022-10-08T01:15:04.714Z,48.2
2022-10-08T01:20:01.166Z,47.1
2022-10-08T01:35:01.263Z,39.6
2022-10-08T01:40:01.094Z,42.6
2022-10-08T01:45:01.221Z,43.5
2022-10-08T01:50:01.158Z,44.8
2022-10-08T01:55:01.411Z,44.8
2022-10-08T02:00:06.037Z,46.0
2022-10-08T02:05:01.236Z,44.8
2022-10-08T02:10:01.092Z,44.2
2022-10-08T02:15:01.251Z,42.4
2022-10-08T02:20:01.233Z,41.4
2022-10-08T02:25:01.378Z,41.2
2022-10-08T02:30:01.095Z,42.5
2022-10-08T02:35:01.312Z,42.8
2022-10-08T02:40:01.169Z,47.4
2022-10-08T02:45:06.230Z,48.8
2022-10-08T03:05:02.151Z,43.8
2022-10-08T03:10:01.923Z,43.6
2022-10-08T03:15:02.194Z,44.4
2022-10-08T03:20:01.922Z,44.5
2022-10-08T03:25:02.152Z,51.4
2022-10-08T03:30:02.222Z,52.0
2022-10-08T03:35:07.497Z,54.3
2022-10-08T03:40:01.966Z,55.0
2022-10-08T03:45:07.669Z,56.6
2022-10-08T03:50:02.964Z,51.2
2022-10-08T03:55:07.026Z,52.0
2022-10-08T04:00:06.893Z,50.2
2022-10-08T04:05:11.526Z,48.8
2022-10-08T04:10:07.981Z,47.4
2022-10-08T04:15:07.012Z,46.2
2022-10-08T04:20:01.958Z,45.5
2022-10-08T04:25:02.094Z,46.0
2022-10-08T04:30:02.000Z,47.4
2022-10-08T04:35:02.050Z,48.6
2022-10-08T04:40:01.898Z,50.3
2022-10-08T04:45:02.086Z,52.1
2022-10-08T04:50:01.925Z,52.8
2022-10-08T04:55:02.118Z,52.5
2022-10-08T05:05:07.330Z,49.0
2022-10-08T05:10:12.367Z,47.0
2022-10-08T05:15:01.928Z,46.0
2022-10-08T05:20:01.899Z,51.1
2022-10-08T05:25:02.152Z,51.6
2022-10-08T05:30:01.890Z,53.5
2022-10-08T06:10:01.932Z,53.4
2022-10-08T06:25:07.072Z,55.1
2022-10-08T06:35:02.009Z,49.9
2022-10-08T07:25:02.282Z,55.1
2022-10-08T07:40:01.924Z,51.6
2022-10-08T08:00:02.196Z,56.6
2022-10-08T08:05:01.970Z,57.2
2022-10-08T08:10:01.795Z,57.1
2022-10-08T08:40:02.311Z,49.9
2022-10-08T08:50:02.378Z,57.6
2022-10-08T09:05:02.402Z,42.0
2022-10-08T09:30:02.255Z,48.1
2022-10-08T09:45:01.914Z,48.4
2022-10-08T09:50:01.310Z,49.4
2022-10-08T10:20:06.808Z,43.2
2022-10-08T10:40:01.114Z,61.5
2022-10-08T10:45:01.553Z,59.6
2022-10-08T10:50:02.069Z,57.5
2022-10-08T11:15:01.722Z,63.4
2022-10-08T11:55:01.759Z,48.6
2022-10-08T12:00:09.492Z,53.5
2022-10-08T12:15:01.846Z,61.2
2022-10-08T12:35:08.290Z,51.6
2022-10-08T12:40:12.196Z,53.1
2022-10-08T12:45:02.501Z,53.7
2022-10-08T13:05:05.300Z,59.6
2022-10-08T13:25:07.210Z,49.2
2022-10-08T13:45:02.960Z,42.0
2022-10-08T13:50:01.047Z,42.4
2022-10-08T13:55:01.585Z,42.5
2022-10-08T14:00:01.052Z,44.6
2022-10-08T14:05:06.337Z,50.2
2022-10-08T14:10:01.432Z,52.7
2022-10-08T14:15:06.175Z,54.2
2022-10-08T14:20:01.032Z,56.3
2022-10-08T14:25:01.595Z,56.3
2022-10-08T14:30:01.342Z,51.1
2022-10-08T14:35:01.196Z,49.4
2022-10-08T14:40:06.256Z,50.1
2022-10-08T14:45:06.552Z,50.4
2022-10-08T14:50:11.706Z,53.6
2022-10-08T14:55:08.442Z,57.2
2022-10-08T15:00:06.067Z,60.1
2022-10-08T15:05:06.635Z,62.2
2022-10-08T15:10:01.125Z,64.4
2022-10-08T15:15:01.370Z,65.2
2022-10-08T15:20:01.125Z,65.1
2022-10-08T15:25:01.321Z,65.2
2022-10-08T15:30:01.074Z,63.3
2022-10-08T15:35:01.581Z,60.9
2022-10-08T15:40:01.256Z,56.9
2022-10-08T15:45:01.196Z,54.5
2022-10-08T15:50:01.128Z,52.9
2022-10-08T15:55:02.312Z,52.1
2022-10-08T16:00:01.393Z,53.6
2022-10-08T16:05:01.671Z,53.6
2022-10-08T16:10:06.213Z,53.0
2022-10-08T16:15:01.126Z,52.4
2022-10-08T16:20:01.675Z,52.4
2022-10-08T16:25:01.254Z,49.3
2022-10-08T16:30:01.554Z,49.3
2022-10-08T16:35:06.542Z,48.2
2022-10-08T16:40:01.643Z,47.4
2022-10-08T17:05:02.898Z,48.8
2022-10-08T17:10:02.602Z,47.5
2022-10-08T17:15:11.840Z,48.5
2022-10-08T17:20:01.796Z,48.2
2022-10-08T17:25:01.970Z,49.6
2022-10-08T17:30:01.653Z,49.2
2022-10-08T17:35:06.830Z,52.0
2022-10-08T17:40:07.555Z,54.8
2022-10-08T17:45:01.931Z,57.9
2022-10-08T17:50:01.638Z,56.4
2022-10-08T17:55:07.844Z,57.0
2022-10-08T18:00:01.774Z,55.1
2022-10-08T18:05:01.882Z,52.7
2022-10-08T18:10:01.719Z,50.0
2022-10-08T18:15:06.768Z,50.7
2022-10-08T18:25:06.958Z,49.8
2022-10-08T18:30:01.600Z,49.2
2022-10-08T18:35:06.785Z,49.6
2022-10-08T18:40:01.653Z,49.1
2022-10-08T18:45:01.903Z,49.6
2022-10-08T18:50:02.165Z,49.2
2022-10-08T18:55:02.255Z,49.0
2022-10-08T19:00:03.193Z,48.4
2022-10-08T19:05:03.416Z,47.0
2022-10-08T19:10:06.773Z,45.6
2022-10-08T19:15:06.932Z,45.3
2022-10-08T19:25:01.850Z,50.4
2022-10-08T19:30:06.938Z,51.2
2022-10-08T19:35:01.705Z,53.4
2022-10-08T19:40:07.727Z,56.1
2022-10-08T19:45:06.820Z,56.4
2022-10-08T19:50:07.685Z,53.3
2022-10-08T19:55:01.880Z,54.9
2022-10-08T20:00:01.669Z,55.5
2022-10-08T20:05:01.622Z,55.2
2022-10-08T20:10:06.622Z,60.7
2022-10-08T20:15:06.728Z,61.1
2022-10-08T20:25:02.669Z,60.2
2022-10-08T20:30:01.546Z,60.0
2022-10-08T20:35:01.648Z,54.2
2022-10-08T20:40:01.579Z,51.1
2022-10-08T20:45:01.584Z,49.6
2022-10-08T20:50:01.632Z,48.6
2022-10-08T20:55:01.649Z,46.3
2022-10-08T21:00:02.620Z,46.1
2022-10-08T21:05:01.647Z,46.3
2022-10-08T21:10:02.543Z,48.0
2022-10-08T21:15:06.623Z,48.0
2022-10-08T21:20:01.900Z,49.1
2022-10-08T21:25:01.674Z,50.7
2022-10-08T21:30:01.538Z,53.9
2022-10-08T21:35:01.812Z,53.4
2022-10-08T21:40:02.582Z,53.2
2022-10-08T21:45:01.719Z,53.4
2022-10-08T21:50:08.364Z,53.1
2022-10-08T21:55:01.729Z,52.6
2022-10-08T22:00:01.574Z,54.6
2022-10-08T22:05:01.591Z,61.2
2022-10-08T22:10:01.850Z,61.9
2022-10-08T22:15:01.584Z,63.3
2022-10-08T22:20:01.582Z,64.1
2022-10-08T22:25:01.576Z,63.7
2022-10-08T22:30:01.547Z,59.7
2022-10-08T22:35:01.700Z,61.2
2022-10-08T22:40:01.544Z,63.0
2022-10-08T22:45:01.861Z,60.5
2022-10-08T22:50:06.833Z,67.2
2022-10-08T22:55:06.871Z,64.4
2022-10-08T23:00:06.558Z,62.5
2022-10-08T23:05:01.495Z,58.3
2022-10-08T23:10:01.513Z,58.8
2022-10-08T23:15:01.551Z,51.0
2022-10-08T23:20:02.527Z,51.5
2022-10-08T23:25:01.603Z,52.0
2022-10-08T23:30:01.513Z,54.6
2022-10-08T23:35:06.537Z,56.1
2022-10-08T23:40:01.544Z,58.4
2022-10-08T23:45:02.599Z,60.8
2022-10-08T23:55:02.579Z,63.3
